Log in
NYSE:HTZ

Hertz Global Institutional Ownership

$1.75
-0.01 (-0.57 %)
(As of 10/23/2020 12:00 AM ET)
Add
Compare
Today's Range
$1.71
Now: $1.75
$1.86
50-Day Range
$1.03
MA: $1.36
$2.50
52-Week Range
$0.40
Now: $1.75
$20.85
Volume29.43 million shs
Average Volume36.44 million shs
Market Capitalization$273.36 million
P/E RatioN/A
Dividend YieldN/A
Beta1.45

Institutional Ownership

Institutional Ownership Changes (13F Filings) for Hertz Global (NYSE:HTZ)

Institutional Ownership Percentage: 23.01%

Institutional Buying and Selling by Quarter


Hertz Global (NYSE HTZ) Institutional Buying and Selling

Reporting DateHedge FundShares HeldMarket Value% of PortfolioQuarterly Change in SharesOwnership in Company
10/22/2020World Asset Management Inc46,806$52K0.0%+90.4%0.030%
8/26/2020Handelsbanken Fonder AB23,116$33K0.0%N/A0.015%
8/25/2020Nuveen Asset Management LLC110,000$0.16M0.0%-81.6%0.070%
8/20/2020Charles Schwab Investment Management Inc.862,227$1.22M0.0%-16.3%0.552%
8/17/2020Aristeia Capital LLC800,000$1.13M0.1%N/A0.512%
8/14/2020Point72 Hong Kong Ltd210,813$0.30M0.0%+4,496.9%0.135%
8/14/2020Coatue Management LLC1,114,411$1.57M0.0%-5.8%0.713%
8/13/2020Gabelli Funds LLC393,500$0.56M0.0%-77.6%0.252%
8/13/2020Gamco Investors INC. ET AL1,297,681$1.83M0.0%-82.8%0.831%
8/12/2020American International Group Inc.53,307$75K0.0%-11.3%0.037%
8/12/2020Bank of New York Mellon Corp444,665$0.63M0.0%-29.1%0.312%
8/12/2020Commonwealth Equity Services LLC21,925$30K0.0%-33.6%0.015%
8/11/2020Healthcare of Ontario Pension Plan Trust Fund1,500,000$2.12M0.0%-21.3%1.054%
8/7/2020Virtu Financial LLC43,431$61K0.0%N/A0.031%
8/7/2020New York State Common Retirement Fund31,900$45K0.0%-65.0%0.022%
8/5/2020Mutual Advisors LLC25,600$36K0.0%N/A0.018%
7/27/2020Cambridge Investment Research Advisors Inc.25,278$36K0.0%N/A0.018%
7/24/2020World Asset Management Inc24,583$35K0.0%+82.6%0.017%
7/23/2020Creative Planning35,767$50K0.0%-60.9%0.025%
7/10/2020Acorn Financial Advisory Services Inc. ADV83,500$0.12M0.1%+255.3%0.059%
6/19/2020State Street Corp2,564,089$15.85M0.0%-2.8%1.802%
5/26/2020Morgan Stanley2,841,853$17.56M0.0%+82.4%2.000%
5/21/2020HighTower Advisors LLC16,571$100K0.0%-60.8%0.012%
5/19/2020Maverick Capital Ltd.234,537$1.45M0.0%-14.7%0.165%
5/18/2020Prentice Capital Management LP55,815$0.35M0.2%N/A0.039%
5/18/2020Advisor Group Holdings Inc.8,297$41K0.0%N/A0.006%
5/15/2020Tower Research Capital LLC TRC29,344$0.18M0.0%+346.2%0.021%
5/15/2020Invesco Ltd.259,603$1.60M0.0%-16.5%0.183%
5/15/2020Morgan Stanley2,841,853$17.56M0.0%+82.4%2.000%
5/15/2020Maverick Capital Ltd.234,537$1.45M0.0%-14.7%0.165%
5/15/2020Thrivent Financial for Lutherans76,038$0.47M0.0%N/A0.054%
5/15/2020Lyrical Asset Management LP3,924,831$24.26M0.6%-6.1%2.763%
5/14/2020Gabelli Funds LLC1,754,247$10.84M0.1%-2.7%1.235%
5/14/2020Wells Fargo & Company MN112,398$0.70M0.0%+16.1%0.079%
5/14/2020Gamco Investors INC. ET AL7,560,343$46.72M0.6%-3.1%5.322%
5/14/2020Geode Capital Management LLC1,404,424$8.68M0.0%+8.1%0.989%
5/14/2020Legal & General Group Plc269,364$1.67M0.0%+4.3%0.190%
5/14/2020Edgestream Partners L.P.34,870$0.22M0.0%-45.0%0.025%
5/14/2020Deutsche Bank AG157,599$0.97M0.0%-29.8%0.111%
5/14/2020Nuveen Asset Management LLC596,270$3.69M0.0%-45.6%0.420%
5/13/2020Canada Pension Plan Investment Board32,831$0.20M0.0%-87.9%0.023%
5/13/2020Redwood Investment Management LLC132,535$0.82M0.5%+75.6%0.093%
5/13/2020Parametric Portfolio Associates LLC838,189$5.18M0.0%-12.9%0.590%
5/13/2020Connor Clark & Lunn Investment Management Ltd.14,000$87K0.0%N/A0.010%
5/13/2020BNP Paribas Arbitrage SA350,062$2.16M0.0%-62.5%0.246%
5/13/2020Horizon Kinetics Asset Management LLC37,657$0.23M0.0%+111.9%0.027%
5/13/2020Healthcare of Ontario Pension Plan Trust Fund1,906,000$11.78M0.1%-14.7%1.342%
5/12/2020Private Advisor Group LLC10,823$67K0.0%-53.7%0.008%
5/12/2020Principal Financial Group Inc.11,693$72K0.0%N/A0.008%
5/12/2020Victory Capital Management Inc.726,678$4.49M0.0%+2,689.8%0.511%
5/12/2020GSA Capital Partners LLP33,118$0.21M0.1%+16.4%0.023%
5/12/2020JPMorgan Chase & Co.502,535$3.11M0.0%+114.1%0.354%
5/11/2020Commonwealth Equity Services LLC33,002$0.20M0.0%N/A0.023%
5/11/2020State Street Corp2,564,089$15.85M0.0%-2.8%1.805%
5/8/2020Cetera Advisors LLC16,508$0.10M0.0%N/A0.012%
5/7/2020AE Wealth Management LLC79,388$0.49M0.0%N/A0.056%
5/7/2020Trustcore Financial Services LLC10,000$62K0.0%N/A0.007%
5/6/2020Zurcher Kantonalbank Zurich Cantonalbank22,544$0.14M0.0%+149.0%0.016%
5/6/2020First Trust Advisors LP109,574$0.68M0.0%+14.2%0.077%
5/6/2020Russell Investments Group Ltd.10,840$66K0.0%+277.7%0.008%
5/6/2020Bank of New York Mellon Corp627,290$3.88M0.0%-3.1%0.442%
5/6/2020Rhumbline Advisers186,297$1.15M0.0%+9.8%0.131%
5/5/2020Arizona State Retirement System20,019$0.12M0.0%N/A0.014%
5/5/2020Creative Planning91,427$0.57M0.0%-24.7%0.064%
5/5/2020Aperio Group LLC38,936$0.24M0.0%+67.7%0.027%
5/4/2020Los Angeles Capital Management & Equity Research Inc.147,581$0.91M0.0%+362.6%0.104%
5/4/2020American International Group Inc.60,082$0.37M0.0%-5.5%0.042%
5/4/2020Victory Capital Management Inc.726,678$4.49M0.0%+2,689.8%0.511%
5/1/2020BlackRock Inc.7,360,980$45.49M0.0%-3.7%5.181%
4/23/2020Fortem Financial Group LLC15,972$99K0.1%N/A0.011%
4/23/2020MERIAN GLOBAL INVESTORS UK Ltd233,908$1.45M0.0%N/A0.165%
4/21/2020Raymond James & Associates10,517$65K0.0%N/A0.007%
4/21/2020Raymond James Financial Services Advisors Inc.38,117$0.24M0.0%N/A0.027%
4/21/2020Congress Asset Management Co. MA97,495$0.60M0.0%-58.3%0.069%
4/17/2020Nisa Investment Advisors LLC5,540$34K0.0%-47.2%0.004%
4/15/2020Acorn Financial Advisory Services Inc. ADV23,500$0.15M0.1%N/A0.017%
3/5/2020Nuveen Asset Management LLC1,095,128$17.25M0.0%+107.2%0.771%
3/3/2020Norges Bank1,566,870$24.68M0.0%N/A1.102%
2/20/2020Geode Capital Management LLC1,299,318$20.46M0.0%+5.6%0.914%
2/14/2020Cubist Systematic Strategies LLC236,473$3.72M0.1%+276.2%0.166%
2/14/2020Gabelli Funds LLC1,803,618$28.41M0.2%-3.2%1.269%
2/14/2020AQR Capital Management LLC14,828$0.23M0.0%-49.3%0.010%
2/14/2020First Republic Investment Management Inc.46,262$0.73M0.0%-42.7%0.033%
2/14/2020Bank of America Corp DE330,767$5.21M0.0%-68.3%0.233%
2/14/2020Ellington Management Group LLC100,558$1.58M0.3%-67.4%0.071%
2/14/2020UBS Asset Management Americas Inc.309,074$4.87M0.0%+97.1%0.217%
2/14/2020Marshall Wace LLP8,381$0.13M0.0%-91.7%0.006%
2/14/2020Bank of New York Mellon Corp647,172$10.19M0.0%+1.9%0.455%
2/14/2020Goldman Sachs Group Inc.3,953,531$62.27M0.0%+15.1%2.782%
2/14/2020Guggenheim Capital LLC13,531$0.21M0.0%-33.5%0.010%
2/14/2020UBS Group AG235,122$3.70M0.0%-89.1%0.165%
2/14/2020Mitsubishi UFJ Trust & Banking Corp228,784$3.60M0.0%-20.1%0.161%
2/14/2020Maverick Capital Ltd.274,979$4.33M0.1%N/A0.193%
2/14/2020Dynamic Technology Lab Private Ltd39,942$0.63M0.1%N/A0.028%
2/13/2020361 Capital LLC74,530$1.17M0.3%-49.7%0.052%
2/13/2020Amalgamated Bank16,202$0.26M0.0%+10.6%0.011%
2/13/2020Cipher Capital LP78,073$1.23M0.1%N/A0.055%
2/13/2020Migdal Insurance & Financial Holdings Ltd.2,290$36K0.0%-33.1%0.002%
2/13/2020Loews Corp244,466$3.85M0.0%-71.9%0.172%
2/13/2020Renaissance Technologies LLC9,657,583$152.11M0.1%+31.8%6.795%
(Data available from 1/1/2016 forward)
This page was last updated on 10/25/2020 by MarketBeat.com Staff

Enter your email address below to receive a concise daily summary of analysts' upgrades, downgrades and new coverage with MarketBeat.com's FREE daily email newsletter.